Time;durP1;ratioP1;P1;durP2;ratioP2;P2;SDS_P1;SDS_P2;PMS_P1;PMS_P2;Temp;Humidity;BMP_temperature;BMP_pressure;BME280_temperature;BME280_humidity;BME280_pressure;Samples;Min_cycle;Max_cycle;Signal;HPM_P1;HPM_P2
2022/03/08 00:00:03;;;;;;;;;;;;;;;;;;5010745;28;20047;-83
2022/03/08 00:02:42;;;;;;;;;;;1.00;92.10;;;;;;5043906;28;19944;-83
2022/03/08 00:05:14;;;;;;;;;;;1.00;92.10;;;;;;5050210;28;20013;-83
2022/03/08 00:07:47;;;;;;;;;;;;;;;;;;5037090;28;19909;-83
2022/03/08 00:10:16;;;;;;;;;;;;;;;;;;5036620;28;19925;-83
2022/03/08 00:12:43;;;;;;;;;;;;;;;;;;5017282;28;19925;-83
2022/03/08 00:15:13;;;;;;;;;;;1.00;92.00;;;;;;5015110;28;19979;-82
2022/03/08 00:17:42;;;;;;;;;;;1.00;92.00;;;;;;5020453;28;19926;-82
2022/03/08 00:20:09;;;;;;;;;;;;;;;;;;5016504;28;20521;-83
2022/03/08 00:22:36;;;;;;;;;;;;;;;;;;5017173;28;19969;-83
2022/03/08 00:25:03;;;;;;;;;;;;;;;;;;5043773;28;19937;-82
2022/03/08 00:27:31;;;;;;;;;;;;;;;;;;5031969;28;19944;-83
2022/03/08 00:29:58;;;;;;;;;;;;;;;;;;5034265;28;20005;-82
2022/03/08 00:32:25;;;;;;;;;;;0.70;91.90;;;;;;5018551;28;19928;-82
2022/03/08 00:34:53;;;;;;;;;;;0.70;92.10;;;;;;5029681;28;19925;-82
2022/03/08 00:37:20;;;;;;;;;;;;;;;;;;5037918;28;19936;-83
2022/03/08 00:39:47;;;;;;;;;;;0.60;92.00;;;;;;5017086;28;19921;-82
2022/03/08 00:42:14;;;;;;;;;;;0.60;92.00;;;;;;5024265;28;20024;-83
2022/03/08 00:44:48;;;;;;;;;;;0.50;92.00;;;;;;5036671;28;19928;-83
2022/03/08 00:47:19;;;;;;;;;;;0.40;92.00;;;;;;5017739;28;20025;-85
2022/03/08 00:49:46;;;;;;;;;;;0.40;92.20;;;;;;5006283;28;19936;-83
2022/03/08 00:52:16;;;;;;;;;;;;;;;;;;5035056;28;20399;-83
2022/03/08 00:54:45;;;;;;;;;;;0.50;92.40;;;;;;5034254;28;19925;-83
2022/03/08 00:57:16;;;;;;;;;;;;;;;;;;5009524;28;19970;-80
2022/03/08 00:59:47;;;;;;;;;;;;;;;;;;5026876;28;19939;-83
2022/03/08 01:02:14;;;;;;;;;;;;;;;;;;5030813;28;19924;-82
2022/03/08 01:04:41;;;;;;;;;;;0.50;92.50;;;;;;5030642;28;20011;-83
2022/03/08 01:07:08;;;;;;;;;;;;;;;;;;5024702;28;19947;-83
2022/03/08 01:09:36;;;;;;;;;;;0.50;92.60;;;;;;5009637;28;19927;-83
2022/03/08 01:12:07;;;;;;;;;;;;;;;;;;5018345;28;19925;-83
2022/03/08 01:14:35;;;;;;;;;;;;;;;;;;5030153;28;20015;-82
2022/03/08 01:17:04;;;;;;;;;;;;;;;;;;5011558;28;20003;-83
2022/03/08 01:19:31;;;;;;;;;;;;;;;;;;5024387;28;19951;-84
2022/03/08 01:21:59;;;;;;;;;;;;;;;;;;5024074;28;19925;-82
2022/03/08 01:24:28;;;;;;;;;;;;;;;;;;5012517;28;20414;-83
2022/03/08 01:26:56;;;;;;;;;;;;;;;;;;5027495;28;19921;-82
2022/03/08 01:29:27;;;;;;;;;;;0.90;93.20;;;;;;5012085;28;19963;-84
2022/03/08 01:31:55;;;;;;;;;;;;;;;;;;5001179;28;19925;-82
2022/03/08 01:34:31;;;;;;;;;;;;;;;;;;5011049;28;19925;-83
2022/03/08 01:36:58;;;;;;;;;;;;;;;;;;5015895;28;19944;-83
2022/03/08 01:39:26;;;;;;;;;;;0.90;93.10;;;;;;5031851;28;19921;-83
2022/03/08 01:41:54;;;;;;;;;;;0.90;93.10;;;;;;5031772;28;19964;-83
2022/03/08 01:44:21;;;;;;;;;;;0.90;93.20;;;;;;5033554;28;19972;-84
2022/03/08 01:46:48;;;;;;;;;;;;;;;;;;5006790;28;20031;-83
2022/03/08 01:49:15;;;;;;;;;;;;;;;;;;5027139;28;19987;-83
2022/03/08 01:51:43;;;;;;;;;;;;;;;;;;5011969;28;19929;-83
2022/03/08 01:54:10;;;;;;;;;;;;;;;;;;5019529;28;20039;-82
2022/03/08 01:56:37;;;;;;;;;;;;;;;;;;5027292;28;19925;-83
2022/03/08 01:59:04;;;;;;;;;;;;;;;;;;5020768;28;20130;-83
2022/03/08 02:01:31;;;;;;;;;;;;;;;;;;5008738;28;19924;-83
2022/03/08 02:03:58;;;;;;;;;;;;;;;;;;5017312;28;19921;-82
2022/03/08 02:06:25;;;;;;;;;;;;;;;;;;5027392;28;20766;-83
2022/03/08 02:08:52;;;;;;;;;;;;;;;;;;5027469;28;20003;-82
2022/03/08 02:11:20;;;;;;;;;;;0.80;93.60;;;;;;5019507;28;19940;-83
2022/03/08 02:13:47;;;;;;;;;;;;;;;;;;5032641;28;19925;-82
2022/03/08 02:16:15;;;;;;;;;;;;;;;;;;5015143;28;20355;-82
2022/03/08 02:18:41;;;;;;;;;;;;;;;;;;5022115;28;19968;-82
2022/03/08 02:21:10;;;;;;;;;;;0.80;93.40;;;;;;5026259;28;20424;-81
2022/03/08 02:23:37;;;;;;;;;;;;;;;;;;5018173;28;20463;-81
2022/03/08 02:26:04;;;;;;;;;;;;;;;;;;5028828;28;19979;-82
2022/03/08 02:28:30;;;;;;;;;;;0.80;93.40;;;;;;5025907;28;19928;-82
2022/03/08 02:30:58;;;;;;;;;;;;;;;;;;5031120;28;19925;-81
2022/03/08 02:33:25;;;;;;;;;;;0.70;93.30;;;;;;5028099;28;19925;-83
2022/03/08 02:35:52;;;;;;;;;;;;;;;;;;5025980;28;19924;-82
2022/03/08 02:38:19;;;;;;;;;;;;;;;;;;5028143;28;19932;-83
2022/03/08 02:40:46;;;;;;;;;;;;;;;;;;5031587;28;19948;-83
2022/03/08 02:43:13;;;;;;;;;;;;;;;;;;5022532;28;20021;-83
2022/03/08 02:45:40;;;;;;;;;;;;;;;;;;5022203;28;19991;-83
2022/03/08 02:48:07;;;;;;;;;;;;;;;;;;5028504;28;20069;-83
2022/03/08 02:50:36;;;;;;;;;;;0.40;93.30;;;;;;5023002;28;19933;-83
2022/03/08 02:53:03;;;;;;;;;;;0.30;93.20;;;;;;5022785;28;20092;-83
2022/03/08 02:55:30;;;;;;;;;;;;;;;;;;5020963;28;19936;-83
2022/03/08 02:57:57;;;;;;;;;;;0.20;93.20;;;;;;5028164;28;19922;-83
2022/03/08 03:00:25;;;;;;;;;;;0.20;93.20;;;;;;5021913;28;19993;-81
2022/03/08 03:02:52;;;;;;;;;;;;;;;;;;5025995;28;19925;-82
2022/03/08 03:05:19;;;;;;;;;;;;;;;;;;5008836;28;19964;-82
2022/03/08 03:07:46;;;;;;;;;;;;;;;;;;5026515;28;19976;-82
2022/03/08 03:10:13;;;;;;;;;;;;;;;;;;5013277;28;19932;-83
2022/03/08 03:12:40;;;;;;;;;;;;;;;;;;5030040;28;20019;-83
2022/03/08 03:15:09;;;;;;;;;;;0.10;93.60;;;;;;5020202;28;19921;-83
2022/03/08 03:17:36;;;;;;;;;;;;;;;;;;5023670;28;20001;-83
2022/03/08 03:20:04;;;;;;;;;;;0.10;93.90;;;;;;5022932;28;20301;-83
2022/03/08 03:22:31;;;;;;;;;;;0.10;93.90;;;;;;5011023;28;19936;-83
2022/03/08 03:24:58;;;;;;;;;;;;;;;;;;5015121;28;19921;-84
2022/03/08 03:27:25;;;;;;;;;;;;;;;;;;5006883;28;19934;-83
2022/03/08 03:29:52;;;;;;;;;;;;;;;;;;5028914;28;20000;-83
2022/03/08 03:32:19;;;;;;;;;;;;;;;;;;5024811;28;19931;-83
2022/03/08 03:34:46;;;;;;;;;;;;;;;;;;5017320;28;19960;-83
2022/03/08 03:37:13;;;;;;;;;;;;;;;;;;5029343;28;20428;-83
2022/03/08 03:39:42;;;;;;;;;;;0.30;94.20;;;;;;5030065;28;19929;-83
2022/03/08 03:42:09;;;;;;;;;;;;;;;;;;5016934;28;19925;-83
2022/03/08 03:44:36;;;;;;;;;;;;;;;;;;5019801;28;19936;-83
2022/03/08 03:47:02;;;;;;;;;;;0.30;94.20;;;;;;5004392;28;19929;-83
2022/03/08 03:49:29;;;;;;;;;;;;;;;;;;5034741;28;19929;-83
2022/03/08 03:51:56;;;;;;;;;;;0.30;94.30;;;;;;5027544;28;19948;-83
2022/03/08 03:54:23;;;;;;;;;;;;;;;;;;5037900;28;19936;-83
2022/03/08 03:56:50;;;;;;;;;;;;;;;;;;5025080;28;20305;-83
2022/03/08 03:59:18;;;;;;;;;;;0.30;94.20;;;;;;5026623;28;19932;-83
2022/03/08 04:01:45;;;;;;;;;;;0.20;94.20;;;;;;5023016;28;19986;-83
2022/03/08 04:04:11;;;;;;;;;;;2.70;95.30;;;;;;5042562;28;19935;-84
2022/03/08 04:06:38;;;;;;;;;;;;;;;;;;5026201;28;19972;-83
2022/03/08 04:09:06;;;;;;;;;;;;;;;;;;5027801;28;20014;-83
2022/03/08 04:11:33;;;;;;;;;;;;;;;;;;5029190;28;19929;-83
2022/03/08 04:14:00;;;;;;;;;;;;;;;;;;5021984;28;19925;-83
2022/03/08 04:16:28;;;;;;;;;;;0.20;94.50;;;;;;5025682;28;19932;-83
2022/03/08 04:18:55;;;;;;;;;;;;;;;;;;5036682;28;19928;-84
2022/03/08 04:21:22;;;;;;;;;;;0.20;94.70;;;;;;5026594;28;19929;-84
2022/03/08 04:23:49;;;;;;;;;;;;;;;;;;5024499;28;19975;-80
2022/03/08 04:26:15;;;;;;;;;;;0.30;94.70;;;;;;5032538;28;19932;-84
2022/03/08 04:28:42;;;;;;;;;;;0.30;94.80;;;;;;5031272;28;19956;-84
2022/03/08 04:31:09;;;;;;;;;;;0.30;94.80;;;;;;5031048;28;19921;-83
2022/03/08 04:33:37;;;;;;;;;;;0.30;94.80;;;;;;5026841;28;20024;-82
2022/03/08 04:36:04;;;;;;;;;;;;;;;;;;5016497;28;19992;-82
2022/03/08 04:38:32;;;;;;;;;;;0.40;94.80;;;;;;5020461;28;19925;-84
2022/03/08 04:41:01;;;;;;;;;;;0.30;94.80;;;;;;5038706;28;19921;-83
2022/03/08 04:43:28;;;;;;;;;;;0.30;94.90;;;;;;5033597;28;19936;-83
2022/03/08 04:45:55;;;;;;;;;;;0.40;95.00;;;;;;5010327;28;19971;-84
2022/03/08 04:48:22;;;;;;;;;;;;;;;;;;5028860;28;19929;-82
2022/03/08 04:50:50;;;;;;;;;;;0.40;95.00;;;;;;5023250;28;20345;-87
2022/03/08 04:53:19;;;;;;;;;;;;;;;;;;5031627;28;19944;-83
2022/03/08 04:55:45;;;;;;;;;;;0.40;94.90;;;;;;5025528;28;20403;-82
2022/03/08 04:58:12;;;;;;;;;;;;;;;;;;5027801;28;19928;-82
2022/03/08 05:00:39;;;;;;;;;;;0.30;94.80;;;;;;5003334;28;19936;-83
2022/03/08 05:03:06;;;;;;;;;;;0.30;94.70;;;;;;5028363;28;19983;-82
2022/03/08 05:05:33;;;;;;;;;;;0.20;94.60;;;;;;5022071;28;19933;-83
2022/03/08 05:08:03;;;;;;;;;;;0.20;94.70;;;;;;5020677;28;19975;-82
2022/03/08 05:10:30;;;;;;;;;;;0.10;94.50;;;;;;5026354;28;20040;-83
2022/03/08 05:12:57;;;;;;;;;;;0.00;94.40;;;;;;5029552;28;19925;-83
2022/03/08 05:15:23;;;;;;;;;;;-0.10;94.30;;;;;;5024279;28;19925;-82
2022/03/08 05:17:50;;;;;;;;;;;;;;;;;;5027228;28;19921;-81
2022/03/08 05:20:17;;;;;;;;;;;1.70;95.10;;;;;;5021638;28;19925;-82
2022/03/08 05:22:44;;;;;;;;;;;-0.30;94.30;;;;;;5020289;28;19971;-82
2022/03/08 05:25:14;;;;;;;;;;;-0.20;94.50;;;;;;5031447;28;19930;-81
2022/03/08 05:27:41;;;;;;;;;;;-0.30;94.60;;;;;;5018110;28;20396;-83
2022/03/08 05:30:08;;;;;;;;;;;-0.30;94.60;;;;;;5033719;28;19922;-82
2022/03/08 05:32:35;;;;;;;;;;;-0.40;94.60;;;;;;5029204;28;19928;-83
2022/03/08 05:35:02;;;;;;;;;;;-0.40;94.70;;;;;;5023481;28;19929;-84
2022/03/08 05:37:30;;;;;;;;;;;-0.40;94.70;;;;;;5030373;28;19921;-83
2022/03/08 05:39:56;;;;;;;;;;;-0.40;94.80;;;;;;5030207;28;19917;-86
2022/03/08 05:42:24;;;;;;;;;;;-0.50;94.70;;;;;;5025438;28;19963;-86
2022/03/08 05:44:51;;;;;;;;;;;-0.50;94.70;;;;;;5005318;28;19984;-86
2022/03/08 05:47:18;;;;;;;;;;;-0.60;94.30;;;;;;5030022;28;19927;-86
2022/03/08 05:49:45;;;;;;;;;;;0.10;94.90;;;;;;5030032;28;19924;-84
2022/03/08 05:52:11;;;;;;;;;;;-0.70;94.60;;;;;;5021622;28;20300;-83
2022/03/08 05:54:38;;;;;;;;;;;-0.80;94.70;;;;;;5033904;28;19939;-82
2022/03/08 05:57:05;;;;;;;;;;;-0.70;94.70;;;;;;5030145;28;20444;-83
2022/03/08 05:59:34;;;;;;;;;;;-0.80;94.70;;;;;;5025986;28;19933;-82
2022/03/08 06:02:01;;;;;;;;;;;-0.80;94.80;;;;;;5036949;28;19940;-82
2022/03/08 06:04:27;;;;;;;;;;;-0.70;94.80;;;;;;5024498;28;19931;-87
2022/03/08 06:06:54;;;;;;;;;;;-0.70;94.90;;;;;;5018328;28;19925;-84
2022/03/08 06:09:21;;;;;;;;;;;-0.70;95.00;;;;;;5029883;28;19932;-84
2022/03/08 06:11:48;;;;;;;;;;;-0.60;94.80;;;;;;5029076;28;19932;-85
2022/03/08 06:14:14;;;;;;;;;;;-0.60;94.80;;;;;;5011248;28;20380;-84
2022/03/08 06:16:43;;;;;;;;;;;-0.60;95.20;;;;;;5022549;28;19964;-87
2022/03/08 06:19:09;;;;;;;;;;;-0.50;95.30;;;;;;5011094;28;20377;-87
2022/03/08 06:21:36;;;;;;;;;;;-0.50;95.00;;;;;;5035390;28;19921;-84
2022/03/08 06:24:03;;;;;;;;;;;-0.40;95.40;;;;;;5010652;28;19929;-84
2022/03/08 06:26:32;;;;;;;;;;;-0.40;95.40;;;;;;5034652;28;19921;-85
2022/03/08 06:28:59;;;;;;;;;;;-0.30;95.50;;;;;;5040495;28;19960;-85
2022/03/08 06:31:25;;;;;;;;;;;-0.20;95.50;;;;;;5012550;28;19924;-85
2022/03/08 06:33:53;;;;;;;;;;;-0.20;95.60;;;;;;5016945;28;20425;-85
2022/03/08 06:36:20;;;;;;;;;;;0.10;95.40;;;;;;5021750;28;19925;-86
2022/03/08 06:38:47;;;;;;;;;;;0.50;96.00;;;;;;5022430;28;20354;-84
2022/03/08 06:41:14;;;;;;;;;;;0.60;96.40;;;;;;5006101;28;20622;-85
2022/03/08 06:43:42;;;;;;;;;;;1.00;96.90;;;;;;5000385;28;19925;-84
2022/03/08 06:46:09;;;;;;;;;;;1.60;97.40;;;;;;5021973;28;19925;-85
2022/03/08 06:48:36;;;;;;;;;;;2.10;97.70;;;;;;5028795;28;20065;-85
2022/03/08 06:51:05;;;;;;;;;;;2.90;98.10;;;;;;5014530;28;19929;-86
2022/03/08 06:53:32;;;;;;;;;;;3.40;98.30;;;;;;5017148;28;19944;-84
2022/03/08 06:55:59;;;;;;;;;;;4.00;98.50;;;;;;5003063;28;19932;-86
2022/03/08 06:58:26;;;;;;;;;;;4.70;98.90;;;;;;5024388;28;19932;-86
2022/03/08 07:00:53;;;;;;;;;;;5.50;99.10;;;;;;5015630;28;19925;-83
2022/03/08 07:03:22;;;;;;;7.63;5.07;;;6.60;99.50;;;;;;5032001;28;20246;-86
2022/03/08 07:05:49;;;;;;;11.97;5.67;;;7.60;98.50;;;;;;5023822;28;20217;-84
2022/03/08 07:08:17;;;;;;;9.60;5.73;;;7.60;98.40;;;;;;5023904;28;20218;-82
2022/03/08 07:10:44;;;;;;;11.90;5.40;;;8.20;97.90;;;;;;5022762;28;20247;-82
2022/03/08 07:13:11;;;;;;;10.27;5.77;;;8.70;97.90;;;;;;5022353;28;20214;-83
2022/03/08 07:15:38;;;;;;;;;;;9.20;97.80;;;;;;5022463;28;20046;-83
2022/03/08 07:18:05;;;;;;;;;;;9.60;96.90;;;;;;5028695;28;20324;-84
2022/03/08 07:20:31;;;;;;;;;;;10.00;95.50;;;;;;5026852;28;19925;-83
2022/03/08 07:22:58;;;;;;;;;;;10.20;93.40;;;;;;5031122;28;19928;-83
2022/03/08 07:25:26;;;;;;;;;;;10.20;93.10;;;;;;5022428;28;19926;-85
2022/03/08 07:27:53;;;;;;;;;;;10.30;91.80;;;;;;5029658;28;19925;-85
2022/03/08 07:30:19;;;;;;;;;;;10.30;91.50;;;;;;5022891;28;19947;-85
2022/03/08 07:32:46;;;;;;;;;;;10.40;91.00;;;;;;5016960;28;19925;-84
2022/03/08 07:35:13;;;;;;;;;;;10.60;90.90;;;;;;5006228;28;20616;-85
2022/03/08 07:37:40;;;;;;;;;;;10.80;90.30;;;;;;5019137;28;19921;-82
2022/03/08 07:40:08;;;;;;;;;;;10.90;90.00;;;;;;5024057;28;19924;-82
2022/03/08 07:42:36;;;;;;;;;;;11.00;89.30;;;;;;5013489;28;19993;-82
2022/03/08 07:45:03;;;;;;;;;;;11.20;89.70;;;;;;5033377;28;19944;-82
2022/03/08 07:47:30;;;;;;;;;;;11.40;95.90;;;;;;5025026;28;20015;-83
2022/03/08 07:49:56;;;;;;;;;;;11.70;95.70;;;;;;5018087;28;19955;-82
2022/03/08 07:52:23;;;;;;;;;;;11.80;94.50;;;;;;5028814;28;19980;-81
2022/03/08 07:54:50;;;;;;;;;;;12.00;93.90;;;;;;5016054;28;20020;-83
2022/03/08 07:57:16;;;;;;;;;;;11.90;93.70;;;;;;5019093;28;19925;-83
2022/03/08 07:59:45;;;;;;;;;;;11.90;94.10;;;;;;5024355;28;19925;-86
2022/03/08 08:02:11;;;;;;;;;;;11.90;92.70;;;;;;5029504;28;19941;-84
2022/03/08 08:04:38;;;;;;;;;;;11.80;92.90;;;;;;5025169;28;19928;-84
2022/03/08 08:07:05;;;;;;;;;;;12.00;92.10;;;;;;5021921;28;19976;-84
2022/03/08 08:09:32;;;;;;;;;;;11.80;91.50;;;;;;5023686;28;19925;-82
2022/03/08 08:11:59;;;;;;;;;;;11.70;91.90;;;;;;5032247;28;19921;-83
2022/03/08 08:14:26;;;;;;;;;;;11.80;92.00;;;;;;5014351;28;20003;-83
2022/03/08 08:16:54;;;;;;;;;;;11.70;92.50;;;;;;5020096;28;19921;-82
2022/03/08 08:19:21;;;;;;;;;;;12.00;92.80;;;;;;5019481;28;19979;-84
2022/03/08 08:21:48;;;;;;;;;;;12.00;91.90;;;;;;5027477;28;19925;-83
2022/03/08 08:24:14;;;;;;;;;;;12.10;92.10;;;;;;5029495;28;19925;-83
2022/03/08 08:26:41;;;;;;;;;;;12.20;92.20;;;;;;5028054;28;20388;-82
2022/03/08 08:29:08;;;;;;;;;;;12.10;91.50;;;;;;5018024;28;20349;-84
2022/03/08 08:31:34;;;;;;;;;;;12.10;91.00;;;;;;5024559;28;20002;-82
2022/03/08 08:34:02;;;;;;;;;;;12.00;91.70;;;;;;5016669;28;20377;-83
2022/03/08 08:36:29;;;;;;;;;;;11.90;90.90;;;;;;5033396;28;19936;-83
2022/03/08 08:38:56;;;;;;;;;;;11.80;91.00;;;;;;5039906;28;20002;-84
2022/03/08 08:41:23;;;;;;;;;;;11.80;91.30;;;;;;5030655;28;19944;-83
2022/03/08 08:43:49;;;;;;;;;;;11.70;91.30;;;;;;5024206;28;20420;-82
2022/03/08 08:46:16;;;;;;;;;;;12.40;91.30;;;;;;5013251;28;19929;-82
2022/03/08 08:48:43;;;;;;;;;;;11.70;90.20;;;;;;5033554;28;20039;-83
2022/03/08 08:51:12;;;;;;;;;;;11.60;90.30;;;;;;5031897;28;19925;-82
2022/03/08 08:53:39;;;;;;;;;;;11.60;90.60;;;;;;5032655;28;19925;-82
2022/03/08 08:56:07;;;;;;;;;;;11.80;90.60;;;;;;5036589;28;19921;-82
2022/03/08 08:58:34;;;;;;;;;;;11.70;90.40;;;;;;5031646;28;19947;-83
2022/03/08 09:01:01;;;;;;;;;;;11.70;90.30;;;;;;5033907;28;19928;-84
2022/03/08 09:03:27;;;;;;;;;;;11.70;90.20;;;;;;5021329;28;19922;-84
2022/03/08 09:05:54;;;;;;;;;;;11.80;90.50;;;;;;5007999;28;19925;-82
2022/03/08 09:08:24;;;;;;;;;;;11.60;88.00;;;;;;5030733;28;19928;-82
2022/03/08 09:10:51;;;;;;;;;;;11.40;88.80;;;;;;5010177;28;19933;-83
2022/03/08 09:13:17;;;;;;;;;;;11.40;89.70;;;;;;5034062;28;19964;-83
2022/03/08 09:15:44;;;;;;;;;;;11.10;87.30;;;;;;5029497;28;19924;-82
2022/03/08 09:18:11;;;;;;;;;;;11.30;87.90;;;;;;5016739;28;19925;-84
2022/03/08 09:20:38;;;;;;;;;;;11.10;87.30;;;;;;5027322;28;20792;-84
2022/03/08 09:23:08;;;;;;;;;;;11.20;87.20;;;;;;5035936;28;19925;-85
2022/03/08 09:25:36;;;;;;;;;;;10.70;86.50;;;;;;5019264;28;19929;-83
2022/03/08 09:28:05;;;;;;;;;;;10.50;87.20;;;;;;5019626;28;19984;-84
2022/03/08 09:30:38;;;;;;;;;;;10.40;86.80;;;;;;5027924;28;19925;-88
2022/03/08 09:33:06;;;;;;;;;;;9.90;87.30;;;;;;5039456;28;20365;-84
2022/03/08 09:35:33;;;;;;;;;;;9.70;86.90;;;;;;5022465;28;20297;-84
2022/03/08 09:37:59;;;;;;;;;;;9.30;86.70;;;;;;5035666;28;19933;-84
2022/03/08 09:40:27;;;;;;;;;;;9.30;88.00;;;;;;5008032;28;19925;-85
2022/03/08 09:42:56;;;;;;;;;;;8.90;87.30;;;;;;5008918;28;20045;-83
2022/03/08 09:45:23;;;;;;;;;;;9.00;88.00;;;;;;5026951;28;19921;-83
2022/03/08 09:47:50;;;;;;;;;;;9.10;89.20;;;;;;5010991;28;19924;-87
2022/03/08 09:50:17;;;;;;;;;;;9.20;88.80;;;;;;5031298;28;19925;-85
2022/03/08 09:52:44;;;;;;;;;;;9.30;89.60;;;;;;5030624;28;19921;-85
2022/03/08 09:55:14;;;;;;;;;;;9.40;89.80;;;;;;5027094;28;19944;-86
2022/03/08 09:57:41;;;;;;;;;;;9.40;89.50;;;;;;5018049;28;19932;-87
2022/03/08 10:00:10;;;;;;;;;;;9.50;88.10;;;;;;5024021;28;19925;-85
2022/03/08 10:02:48;;;;;;;;;;;9.50;88.10;;;;;;5028771;28;19929;-85
2022/03/08 10:05:15;;;;;;;;;;;9.50;87.40;;;;;;5019901;28;20238;-86
2022/03/08 10:08:01;;;;;;;;;;;9.50;87.90;;;;;;5024677;28;19969;-85
2022/03/08 10:10:30;;;;;;;;;;;9.80;88.40;;;;;;5030130;28;20331;-84
2022/03/08 10:12:57;;;;;;;;;;;9.70;86.80;;;;;;5028604;28;19925;-84
2022/03/08 10:15:25;;;;;;;;;;;9.50;87.20;;;;;;5031453;28;20550;-86
2022/03/08 10:17:52;;;;;;;;;;;9.60;88.20;;;;;;5031775;28;19956;-86
2022/03/08 10:20:28;;;;;;;;;;;9.80;89.30;;;;;;5033500;28;20329;-86
2022/03/08 10:22:54;;;;;;;;;;;10.10;86.80;;;;;;5017138;28;19929;-84
2022/03/08 10:25:24;;;;;;;;;;;9.90;88.10;;;;;;5006087;28;20231;-83
2022/03/08 10:28:02;;;;;;;;;;;10.10;86.70;;;;;;5029346;28;19925;-84
2022/03/08 10:30:48;;;;;;;;;;;10.20;87.00;;;;;;5035251;28;19984;-83
2022/03/08 10:33:19;;;;;;;;;;;10.20;86.00;;;;;;5023638;28;19921;-84
2022/03/08 10:35:46;;;;;;;;;;;10.30;87.30;;;;;;5014779;28;19965;-83
2022/03/08 10:38:13;;;;;;;;;;;10.60;87.20;;;;;;5027235;28;19965;-84
2022/03/08 10:40:40;;;;;;;;;;;10.60;85.90;;;;;;5033340;28;19941;-82
2022/03/08 10:43:09;;;;;;;;;;;10.60;85.80;;;;;;5022165;28;19989;-82
2022/03/08 10:45:40;;;;;;;;;;;10.70;84.60;;;;;;5030404;28;19924;-82
2022/03/08 10:48:07;;;;;;;;;;;10.80;85.10;;;;;;5025925;28;19929;-82
2022/03/08 10:50:35;;;;;;;;;;;10.70;84.00;;;;;;5023545;28;19921;-82
2022/03/08 10:53:03;;;;;;;;;;;10.70;84.20;;;;;;5011508;28;19920;-83
2022/03/08 10:55:30;;;;;;;;;;;10.80;85.20;;;;;;5026476;28;20406;-82
2022/03/08 10:57:58;;;;;;;;;;;10.90;85.00;;;;;;5036476;28;19933;-83
2022/03/08 11:00:25;;;;;;;;;;;11.00;85.20;;;;;;5028968;28;19932;-83
2022/03/08 11:02:55;;;;;;;;;;;11.50;86.20;;;;;;5018568;28;20042;-83
2022/03/08 11:05:22;;;;;;;;;;;11.30;85.70;;;;;;5025403;28;19964;-84
2022/03/08 11:07:50;;;;;;;;;;;11.70;86.00;;;;;;5028654;28;19925;-84
2022/03/08 11:10:19;;;;;;;;;;;11.40;83.50;;;;;;5013343;28;20027;-82
2022/03/08 11:12:46;;;;;;;;;;;11.50;85.40;;;;;;5017386;28;19980;-83
2022/03/08 11:15:18;;;;;;;;;;;11.40;83.80;;;;;;5022158;28;19929;-83
2022/03/08 11:17:47;;;;;;;;;;;11.50;84.30;;;;;;5029268;28;19925;-82
2022/03/08 11:20:16;;;;;;;;;;;11.60;84.30;;;;;;5040105;28;19948;-82
2022/03/08 11:22:44;;;;;;;;;;;11.60;84.30;;;;;;5025411;28;19925;-83
2022/03/08 11:25:12;;;;;;;;;;;11.80;84.30;;;;;;5031017;28;20011;-83
2022/03/08 11:27:40;;;;;;;;;;;12.10;85.20;;;;;;5031954;28;20015;-83
2022/03/08 11:30:08;;;;;;;;;;;11.90;83.20;;;;;;5034196;28;19909;-82
2022/03/08 11:32:39;;;;;;;;;;;12.00;83.70;;;;;;5032542;28;19929;-84
2022/03/08 11:35:11;;;;;;;;;;;12.10;83.90;;;;;;5041053;28;19956;-83
2022/03/08 11:37:40;;;;;;;;;;;12.20;84.70;;;;;;5033910;28;19954;-83
2022/03/08 11:40:08;;;;;;;;;;;12.30;85.90;;;;;;5007762;28;19925;-83
2022/03/08 11:42:37;;;;;;;;;;;12.50;84.00;;;;;;5018453;28;19943;-83
2022/03/08 11:45:05;;;;;;;;;;;12.50;83.70;;;;;;5036774;28;19929;-83
2022/03/08 11:47:40;;;;;;;;;;;12.50;83.30;;;;;;5033689;28;19925;-83
2022/03/08 11:50:18;;;;;;;;;;;12.40;83.00;;;;;;5015373;28;19964;-83
2022/03/08 11:52:51;;;;;;;;;;;12.40;82.50;;;;;;5025157;28;19925;-83
2022/03/08 11:55:24;;;;;;;;;;;12.40;82.10;;;;;;5012294;28;19932;-82
2022/03/08 11:57:56;;;;;;;;;;;12.50;82.30;;;;;;5012888;28;19946;-84
2022/03/08 12:00:24;;;;;;;;;;;12.60;82.30;;;;;;5008158;28;20352;-84
2022/03/08 12:02:52;;;;;;;;;;;12.50;82.40;;;;;;5009986;28;20031;-83
2022/03/08 12:05:38;;;;;;;;;;;12.60;82.20;;;;;;5033241;28;19925;-83
2022/03/08 12:08:32;;;;;;;;;;;12.80;83.60;;;;;;5025549;28;19925;-83
2022/03/08 12:11:01;;;;;;;;;;;12.60;82.50;;;;;;4969777;28;20016;-83
2022/03/08 12:13:28;;;;;;;;;;;12.70;83.90;;;;;;5034862;28;20002;-83
2022/03/08 12:16:14;;;;;;;;;;;12.90;83.30;;;;;;5024493;28;20039;-83
2022/03/08 12:18:42;;;;;;;;;;;13.10;83.40;;;;;;5027236;28;19925;-83
2022/03/08 12:21:27;;;;;;;;;;;13.20;82.30;;;;;;5034101;28;19979;-83
2022/03/08 12:23:58;;;;;;;;;;;13.10;81.70;;;;;;5032534;28;20011;-84
2022/03/08 12:26:27;;;;;;;;;;;13.40;82.40;;;;;;5028162;28;19980;-84
2022/03/08 12:29:08;;;;;;;;;;;13.30;81.10;;;;;;5035976;28;19921;-84
2022/03/08 12:31:55;;;;;;;;;;;13.30;80.90;;;;;;5020028;28;19940;-84
2022/03/08 12:34:34;;;;;;;;;;;13.50;81.60;;;;;;5033916;28;19938;-83
2022/03/08 12:37:01;;;;;;;;;;;13.50;80.10;;;;;;5011468;28;19992;-83
2022/03/08 12:39:44;;;;;;;;;;;13.70;79.60;;;;;;5026473;28;19925;-84
2022/03/08 12:42:17;;;;;;;;;;;13.70;78.40;;;;;;5010412;28;19939;-83
2022/03/08 12:44:49;;;;;;;;;;;13.70;79.40;;;;;;5018918;28;19929;-83
2022/03/08 12:47:17;;;;;;;;;;;13.90;79.90;;;;;;5035667;28;19931;-83
2022/03/08 12:49:43;;;;;;;;;;;13.90;79.40;;;;;;5027277;28;19937;-83
2022/03/08 12:52:12;;;;;;;;;;;13.90;79.80;;;;;;5024907;28;19928;-83
2022/03/08 12:54:41;;;;;;;;;;;14.30;80.10;;;;;;5033012;28;19928;-83
2022/03/08 12:57:09;;;;;;;;;;;14.20;78.70;;;;;;5012714;28;19934;-83
2022/03/08 12:59:43;;;;;;;;;;;14.00;77.20;;;;;;5012510;28;19932;-83
2022/03/08 13:02:10;;;;;;;;;;;14.10;78.30;;;;;;5023663;28;19944;-83
2022/03/08 13:04:38;;;;;;;;;;;14.00;78.10;;;;;;5031233;28;20305;-83
2022/03/08 13:07:08;;;;;;;;;;;14.60;79.20;;;;;;5026471;28;19921;-83
2022/03/08 13:09:48;;;;;;;;;;;14.50;78.20;;;;;;5030055;28;19924;-83
2022/03/08 13:12:18;;;;;;;;;;;14.00;76.50;;;;;;5021839;28;20071;-83
2022/03/08 13:15:00;;;;;;;;;;;14.00;77.00;;;;;;5026462;28;19925;-82
2022/03/08 13:17:31;;;;;;;;;;;14.20;77.40;;;;;;5008138;28;19932;-83
2022/03/08 13:19:58;;;;;;;;;;;14.30;76.10;;;;;;5024769;28;20017;-83
2022/03/08 13:22:25;;;;;;;;;;;14.00;76.60;;;;;;5025785;28;19922;-82
2022/03/08 13:25:06;;;;;;;;;;;14.00;76.20;;;;;;5033916;28;19920;-83
2022/03/08 13:27:48;;;;;;;;;;;13.90;75.90;;;;;;5029378;28;19925;-83
2022/03/08 13:30:18;;;;;;;;;;;13.90;76.10;;;;;;5019204;28;20423;-83
2022/03/08 13:32:46;;;;;;;;;;;13.90;76.80;;;;;;5031155;28;19993;-82
2022/03/08 13:35:13;;;;;;;;;;;14.20;77.30;;;;;;5032792;28;19936;-82
2022/03/08 13:37:46;;;;;;;;;;;14.00;77.30;;;;;;5037178;28;19932;-82
2022/03/08 13:40:24;;;;;;;;;;;14.10;77.50;;;;;;5013181;28;20408;-85
2022/03/08 13:42:51;;;;;;;;;;;14.10;77.40;;;;;;5032870;28;19929;-86
2022/03/08 13:45:18;;;;;;;;;;;14.30;76.90;;;;;;5028731;28;19929;-85
2022/03/08 13:47:51;;;;;;;;;;;14.20;76.80;;;;;;5025945;28;19921;-87
2022/03/08 13:50:18;;;;;;;;;;;14.30;77.10;;;;;;5033789;28;20035;-87
2022/03/08 13:52:49;;;;;;;;;;;14.20;76.60;;;;;;5028034;28;19936;-86
2022/03/08 13:55:16;;;;;;;;;;;14.20;77.10;;;;;;5012391;28;19933;-87
2022/03/08 13:57:52;;;;;;;;;;;14.60;77.40;;;;;;5019850;28;19970;-86
2022/03/08 14:00:19;;;;;;;;;;;14.60;77.10;;;;;;5024276;28;19947;-87
2022/03/08 14:02:53;;;;;;;;;;;14.30;77.10;;;;;;5025659;28;19925;-87
2022/03/08 14:05:20;;;;;;;;;;;14.20;76.50;;;;;;5026130;28;20416;-87
2022/03/08 14:07:54;;;;;;;;;;;14.10;77.30;;;;;;5030033;28;19924;-87
2022/03/08 14:10:21;;;;;;;;;;;14.30;76.50;;;;;;5015916;28;19925;-87
2022/03/08 14:12:47;;;;;;;;;;;14.30;77.40;;;;;;5014105;28;19925;-87
2022/03/08 14:15:14;;;;;;;;;;;14.70;78.10;;;;;;5035530;28;19925;-87
2022/03/08 14:17:41;;;;;;;;;;;14.30;75.80;;;;;;5034245;28;20293;-86
2022/03/08 14:20:15;;;;;;;;;;;14.40;75.90;;;;;;5025932;28;19922;-87
2022/03/08 14:22:57;;;;;;;;;;;14.20;74.70;;;;;;5027576;28;20312;-87
2022/03/08 14:25:25;;;;;;;;;;;14.20;75.70;;;;;;5036753;28;19925;-88
2022/03/08 14:27:52;;;;;;;;;;;14.00;76.10;;;;;;5015595;28;20334;-87
2022/03/08 14:30:22;;;;;;;;;;;13.90;76.80;;;;;;5043766;28;19920;-87
2022/03/08 14:32:49;;;;;;;;;;;14.20;74.60;;;;;;5028151;28;20177;-87
2022/03/08 14:35:18;;;;;;;;;;;13.90;75.30;;;;;;5012729;28;19924;-87
2022/03/08 14:37:45;;;;;;;;;;;13.70;75.30;;;;;;5046635;28;20006;-87
2022/03/08 14:40:12;;;;;;;;;;;14.80;75.50;;;;;;5026315;28;19921;-87
2022/03/08 14:42:40;;;;;;;;;;;14.20;74.80;;;;;;5022173;28;20256;-87
2022/03/08 14:45:09;;;;;;;;;;;13.60;74.20;;;;;;5053122;28;19915;-86
2022/03/08 14:47:38;;;;;;;;;;;13.50;73.90;;;;;;5052229;28;19939;-87
2022/03/08 14:50:24;;;;;;;;;;;13.40;74.00;;;;;;5038890;28;19936;-85
2022/03/08 14:52:52;;;;;;;;;;;13.30;73.60;;;;;;5035274;28;20292;-86